Aérodrome :
LOGIN :

S'inscrire | Disclaimer

   EN    FR    IT 

 










Légende :    VFR   VFR Marginal   IFR   IFR Intensif   IFR Très Intensif
Visi : 
Plafond : 
>= 8 km
>= 3000ft
5 à 8 km
1000 à 3000 ft
1500m à 5 km
500 à 1000 ft
800 à 1500m
200 à 500 ft
< 800m
< 200 ft
Symboles :   Orages  Brouillard  Fortes neiges  Fortes précipitations  Vent > 20 kt
SIGMETs :   Divers  Orages  Givrage  Turbulence  Onde Orograph.  Cendres Volcan.






- Altitude de l'aérodrome : 407 ft


EGDM - MoD Boscombe Down Amesbury

DERNIER METAR :
  • 251550Z 25011KT 9999 FEW020 BKN050 BKN080 04/02 Q0997 TEMPO 4000 SHRA SCT018 RMK BLU TEMPO GRN

METARs EXPIRÉS :
  • 251520Z 25013KT 9999 FEW010 BKN040 BKN080 02/02 Q0998 TEMPO 7000 -SHRA SCT018 RMK BLU TEMPO WHT
  • 251509Z 26019KT 7000 -SHRA SCT010 BKN017TCU 03/02 Q0998 BECMG 9999 NSW SCT025 RMK GRN BECMG BLU
  • 251450Z 27019KT 9999 -SHRA FEW012 BKN017TCU BKN025 04/02 Q0998 TEMPO 5000 SHRA SCT014 RMK WHT TEMPO GRN
  • 251421Z 26014KT 9999 FEW018 SCT030 BKN080 07/03 Q0998 TEMPO 4000 SHRA BKN018 RMK BLU TEMPO WHT
  • 251350Z 28013KT 9999 FEW017 SCT030 BKN100 06/03 Q0999 BLU TEMPO -SHRA SCT017 RMK BLU TEMPO WHT
  • 251327Z 28014G31KT 9999 VCSH FEW016 SCT018 BKN250 05/03 Q0999 TEMPO FEW020 RMK WHT TEMPO BLU
  • 251320Z 28018G31KT 8000 5000N -SHRA SCT017TCU BKN030 04/02 Q0999 TEMPO 9999 NSW FEW017 RMK WHT TEMPO BLU

TAF TAF EGDM
Valide du 25 à 15h jusqu'au 25 à 19h UTC


251358Z 2515/2519 28014KT 9999 FEW025
TEMPO 2515/2519 28017G27KT 5000 -SHRA SCT018TCU
PROB40
TEMPO 2515/2517 3000 SHGS SCT014CB
PROB30
TEMPO 2517/2519 3000 -SHRASN



MET'MAP, la Météo Aéronautique d'un coup d'oeil ! - Copyright ORBIFLY Décembre 2007 - Disclaimer

ORBIFLY MET'MAP TEAM :

Programmation & Développement : Alexandra Zaïnal
Sur une idée originale de : Baudouin d'Aumeries
Assistance à la programmation : Marc-Olivier Méhu
Soutien technique & logistique : Manuel Goepfert

Contact : metmap@orbifly.com




SOURCES & CREDITS :

   NOAA